Time;durP1;ratioP1;P1;durP2;ratioP2;P2;SDS_P1;SDS_P2;PMS_P1;PMS_P2;Temp;Humidity;BMP_temperature;BMP_pressure;BME280_temperature;BME280_humidity;BME280_pressure;Samples;Min_cycle;Max_cycle;Signal;HPM_P1;HPM_P2
2021/12/22 00:01:30;;;;;;;4.13;3.75;;;;;;;;;;5005572;28;20036;-60
2021/12/22 00:03:55;;;;;;;4.68;3.58;;;;;;;;;;5007048;28;20081;-60
2021/12/22 00:06:24;;;;;;;4.75;3.08;;;;;;;;;;5008085;28;20038;-61
2021/12/22 00:08:50;;;;;;;4.25;3.53;;;;;;;;;;5008291;28;20033;-60
2021/12/22 00:11:16;;;;;;;4.95;4.13;;;;;;;;;;5007021;28;20053;-60
2021/12/22 00:13:43;;;;;;;3.47;3.03;;;;;;;;;;5007538;28;20039;-60
2021/12/22 00:16:09;;;;;;;6.50;4.45;;;;;;;;;;5006353;28;20073;-61
2021/12/22 00:18:35;;;;;;;3.80;3.40;;;;;;;;;;5011563;28;20035;-60
2021/12/22 00:21:00;;;;;;;4.85;3.80;;;;;;;;;;5008762;28;20112;-61
2021/12/22 00:23:26;;;;;;;3.33;2.80;;;;;;;;;;5009125;28;20095;-60
2021/12/22 00:25:51;;;;;;;4.85;3.50;;;;;;;;;;5008014;28;20034;-60
2021/12/22 00:28:17;;;;;;;8.00;3.70;;;;;;;;;;5004573;28;20065;-60
2021/12/22 00:30:43;;;;;;;3.22;2.90;;;;;;;;;;5004465;28;20096;-60
2021/12/22 00:33:11;;;;;;;4.30;3.22;;;;;;;;;;5005811;28;20030;-61
2021/12/22 00:35:45;;;;;;;4.55;4.10;;;;;;;;;;5004720;28;20026;-60
2021/12/22 00:38:16;;;;;;;4.07;3.67;;;;;;;;;;5007387;28;20642;-60
2021/12/22 00:40:41;;;;;;;3.20;2.40;;;;;;;;;;5009515;28;20034;-60
2021/12/22 00:43:07;;;;;;;5.03;4.25;;;;;;;;;;5008579;28;20507;-60
2021/12/22 00:45:35;;;;;;;4.78;3.42;;;;;;;;;;5009696;28;20102;-51
2021/12/22 00:48:04;;;;;;;3.85;3.45;;;;;;;;;;5008817;28;20021;-51
2021/12/22 00:50:30;;;;;;;4.32;3.92;;;;;;;;;;5010835;28;20026;-49
2021/12/22 00:52:55;;;;;;;3.47;3.15;;;;;;;;;;5008794;28;20467;-50
2021/12/22 00:55:21;;;;;;;3.90;3.50;;;;;;;;;;5006454;28;20029;-48
2021/12/22 00:57:48;;;;;;;5.53;4.97;;;;;;;;;;5007066;28;20034;-49
2021/12/22 01:00:15;;;;;;;4.03;3.63;;;;;;;;;;5004168;28;20184;-49
2021/12/22 01:02:41;;;;;;;5.75;3.88;;;;;;;;;;5005170;28;20026;-52
2021/12/22 01:05:08;;;;;;;4.20;3.35;;;;;;;;;;5003094;28;20084;-51
2021/12/22 01:07:33;;;;;;;5.47;3.88;;;;;;;;;;5002502;28;20125;-51
2021/12/22 01:09:59;;;;;;;4.60;3.83;;;;;;;;;;5006534;28;20186;-48
2021/12/22 01:12:24;;;;;;;12.88;4.25;;;;;;;;;;5008584;28;20026;-52
2021/12/22 01:14:49;;;;;;;4.07;3.58;;;;;;;;;;5008217;28;20149;-48
2021/12/22 01:17:16;;;;;;;4.65;4.25;;;;;;;;;;5005019;28;20032;-51
2021/12/22 01:22:29;;;;;;;3.95;3.63;;;;;;;;;;5008183;28;20030;-52
2021/12/22 01:25:02;;;;;;;4.63;4.18;;;;;;;;;;5009397;28;20455;-49
2021/12/22 01:27:36;;;;;;;3.97;3.58;;;;;;;;;;5007130;28;20073;-49
2021/12/22 01:30:23;;;;;;;3.83;3.42;;;;;;;;;;5009062;28;20061;-51
2021/12/22 01:32:51;;;;;;;3.47;2.97;;;;;;;;;;5002135;28;20030;-50
2021/12/22 01:35:24;;;;;;;4.07;3.33;;;;;;;;;;5006958;28;20341;-46
2021/12/22 01:37:49;;;;;;;4.13;3.50;;;;;;;;;;5002171;28;20372;-49
2021/12/22 01:40:16;;;;;;;3.92;3.53;;;;;;;;;;5004363;28;20025;-50
2021/12/22 01:42:42;;;;;;;6.05;4.68;;;;;;;;;;5004887;28;20392;-48
2021/12/22 01:45:29;;;;;;;4.50;4.05;;;;;;;;;;5014632;28;20030;-51
2021/12/22 01:50:42;;;;;;;7.70;4.43;;;;;;;;;;5000453;28;20034;-50
2021/12/22 01:53:27;;;;;;;5.13;3.75;;;;;;;;;;5005755;28;20111;-51
2021/12/22 01:56:12;;;;;;;4.00;3.65;;;;;;;;;;5008594;28;20044;-52
2021/12/22 01:58:43;;;;;;;6.18;4.20;;;;;;;;;;5013616;28;20053;-52
2021/12/22 02:01:10;;;;;;;3.63;3.28;;;;;;;;;;5010634;28;20372;-51
2021/12/22 02:03:37;;;;;;;4.05;3.55;;;;;;;;;;5007121;28;20034;-52
2021/12/22 02:06:04;;;;;;;5.47;3.55;;;;;;;;;;5011156;28;20109;-52
2021/12/22 02:08:30;;;;;;;4.53;3.65;;;;;;;;;;5010237;28;20034;-49
2021/12/22 02:10:55;;;;;;;14.30;4.35;;;;;;;;;;5006334;28;20044;-50
2021/12/22 02:13:27;;;;;;;4.95;4.00;;;;;;;;;;5009157;28;20036;-48
2021/12/22 02:15:53;;;;;;;4.72;3.65;;;;;;;;;;5003634;28;20038;-49
2021/12/22 02:18:20;;;;;;;3.78;3.33;;;;;;;;;;5002273;28;20041;-47
2021/12/22 02:20:47;;;;;;;4.57;4.00;;;;;;;;;;4997131;28;20452;-45
2021/12/22 02:23:13;;;;;;;5.40;3.35;;;;;;;;;;5002284;28;20134;-49
2021/12/22 02:25:46;;;;;;;7.72;5.30;;;;;;;;;;5007866;28;20463;-48
2021/12/22 02:28:19;;;;;;;4.85;3.10;;;;;;;;;;5004759;28;20041;-47
2021/12/22 02:30:44;;;;;;;3.55;3.13;;;;;;;;;;5007127;28;20510;-51
2021/12/22 02:35:44;;;;;;;7.68;4.18;;;;;;;;;;5007059;28;20038;-51
2021/12/22 02:38:18;;;;;;;3.45;3.00;;;;;;;;;;5011114;28;20030;-50
2021/12/22 02:40:46;;;;;;;4.95;3.90;;;;;;;;;;5006171;28;20064;-51
2021/12/22 02:43:18;;;;;;;3.60;3.20;;;;;;;;;;5006851;28;20034;-47
2021/12/22 02:45:43;;;;;;;4.90;3.35;;;;;;;;;;5008653;28;20044;-46
2021/12/22 02:48:09;;;;;;;5.63;5.03;;;;;;;;;;5004396;28;20030;-51
2021/12/22 02:50:36;;;;;;;5.10;4.20;;;;;;;;;;5007135;28;20049;-48
2021/12/22 02:53:06;;;;;;;5.95;4.40;;;;;;;;;;5001648;28;20093;-47
2021/12/22 02:58:33;;;;;;;6.93;4.45;;;;;;;;;;5000759;28;20035;-48
2021/12/22 03:03:49;;;;;;;5.75;4.65;;;;;;;;;;5006621;28;20036;-47
2021/12/22 03:06:21;;;;;;;4.25;3.78;;;;;;;;;;5005356;28;20034;-50
2021/12/22 03:08:47;;;;;;;8.77;4.57;;;;;;;;;;5004601;28;20041;-49
2021/12/22 03:11:12;;;;;;;4.72;4.28;;;;;;;;;;5004274;28;20034;-47
2021/12/22 03:13:37;;;;;;;3.75;3.35;;;;;;;;;;5008198;28;20038;-45
2021/12/22 03:16:03;;;;;;;4.13;3.63;;;;;;;;;;5002227;28;20038;-48
2021/12/22 03:18:28;;;;;;;4.03;3.30;;;;;;;;;;5004301;28;20507;-46
2021/12/22 03:21:03;;;;;;;4.00;3.60;;;;;;;;;;5007634;28;20113;-47
2021/12/22 03:23:28;;;;;;;5.22;4.13;;;;;;;;;;5006361;28;20133;-46
2021/12/22 03:25:54;;;;;;;6.47;4.25;;;;;;;;;;4999403;28;20121;-46
2021/12/22 03:28:19;;;;;;;4.07;3.35;;;;;;;;;;5003247;28;20091;-46
2021/12/22 03:30:44;;;;;;;4.55;3.80;;;;;;;;;;5001662;28;20129;-48
2021/12/22 03:33:10;;;;;;;5.15;4.40;;;;;;;;;;5000668;28;20120;-58
2021/12/22 03:35:38;;;;;;;4.45;4.05;;;;;;;;;;5000194;28;20092;-58
2021/12/22 03:38:03;;;;;;;4.40;3.97;;;;;;;;;;5001811;28;20026;-58
2021/12/22 03:40:29;;;;;;;3.40;2.95;;;;;;;;;;5002375;28;20471;-58
2021/12/22 03:42:54;;;;;;;4.10;3.70;;;;;;;;;;5005010;28;20121;-58
2021/12/22 03:45:20;;;;;;;4.30;3.90;;;;;;;;;;5005782;28;20041;-58
2021/12/22 03:47:46;;;;;;;5.95;4.00;;;;;;;;;;5009196;28;20034;-57
2021/12/22 03:50:12;;;;;;;3.63;3.33;;;;;;;;;;5013063;28;20034;-57
2021/12/22 03:52:38;;;;;;;3.72;3.28;;;;;;;;;;5011604;28;20030;-58
2021/12/22 03:55:05;;;;;;;5.43;4.13;;;;;;;;;;5014263;28;20034;-58
2021/12/22 03:57:31;;;;;;;3.25;2.90;;;;;;;;;;5009094;28;20098;-60
2021/12/22 03:59:58;;;;;;;4.05;3.65;;;;;;;;;;5012098;28;20037;-59
2021/12/22 04:02:25;;;;;;;7.22;3.28;;;;;;;;;;5009505;28;20026;-59
2021/12/22 04:04:51;;;;;;;3.85;3.47;;;;;;;;;;5004895;28;20113;-59
2021/12/22 04:07:17;;;;;;;3.45;3.15;;;;;;;;;;5005472;28;20120;-60
2021/12/22 04:09:43;;;;;;;4.53;4.13;;;;;;;;;;5008077;28;20037;-59
2021/12/22 04:12:08;;;;;;;3.85;2.88;;;;;;;;;;5004155;28;20643;-47
2021/12/22 04:14:34;;;;;;;3.33;2.92;;;;;;;;;;5007234;28;20064;-46
2021/12/22 04:16:59;;;;;;;4.10;3.70;;;;;;;;;;5011002;28;20132;-47
2021/12/22 04:19:25;;;;;;;3.88;3.28;;;;;;;;;;5011432;28;20052;-47
2021/12/22 04:21:51;;;;;;;6.70;4.75;;;;;;;;;;5009435;28;20038;-46
2021/12/22 04:24:17;;;;;;;4.60;3.80;;;;;;;;;;5008299;28;20081;-59
2021/12/22 04:26:42;;;;;;;5.43;4.57;;;;;;;;;;5006663;28;20034;-60
2021/12/22 04:29:10;;;;;;;3.47;2.70;;;;;;;;;;5014434;28;20101;-59
2021/12/22 04:31:35;;;;;;;4.22;3.33;;;;;;;;;;5011438;28;20042;-59
2021/12/22 04:34:07;;;;;;;3.97;3.55;;;;;;;;;;5012226;28;20027;-59
2021/12/22 04:36:33;;;;;;;4.18;3.45;;;;;;;;;;5010237;28;20097;-59
2021/12/22 04:38:59;;;;;;;3.75;3.25;;;;;;;;;;5008349;28;20022;-59
2021/12/22 04:41:26;;;;;;;12.77;4.22;;;;;;;;;;4999488;28;20064;-59
2021/12/22 04:43:52;;;;;;;7.47;4.75;;;;;;;;;;4998454;28;20034;-59
2021/12/22 04:46:19;;;;;;;4.22;3.58;;;;;;;;;;5015906;28;20044;-48
2021/12/22 04:48:45;;;;;;;4.25;3.30;;;;;;;;;;5002037;28;20038;-46
2021/12/22 04:51:22;;;;;;;3.85;3.05;;;;;;;;;;5001127;28;20029;-47
2021/12/22 04:53:57;;;;;;;4.25;3.58;;;;;;;;;;5000128;28;20034;-50
2021/12/22 04:56:23;;;;;;;6.13;3.80;;;;;;;;;;5010571;28;20500;-48
2021/12/22 04:58:48;;;;;;;6.88;4.38;;;;;;;;;;5010685;28;20033;-47
2021/12/22 05:01:13;;;;;;;3.85;3.28;;;;;;;;;;5009485;28;20032;-47
2021/12/22 05:03:41;;;;;;;4.25;3.72;;;;;;;;;;5009389;28;20034;-48
2021/12/22 05:06:07;;;;;;;4.15;3.40;;;;;;;;;;5008169;28;20603;-49
2021/12/22 05:08:33;;;;;;;3.92;3.53;;;;;;;;;;5012612;28;20053;-47
2021/12/22 05:10:58;;;;;;;4.97;3.47;;;;;;;;;;5011287;28;20030;-47
2021/12/22 05:13:24;;;;;;;3.90;3.50;;;;;;;;;;5003885;28;20018;-49
2021/12/22 05:15:51;;;;;;;4.13;3.40;;;;;;;;;;5006116;28;20520;-48
2021/12/22 05:20:45;;;;;;;5.72;5.13;;;;;;;;;;5005248;28;20533;-48
2021/12/22 05:23:10;;;;;;;6.20;3.97;;;;;;;;;;5001789;28;20029;-47
2021/12/22 05:25:35;;;;;;;4.90;3.75;;;;;;;;;;5001751;28;20033;-46
2021/12/22 05:28:01;;;;;;;5.25;3.83;;;;;;;;;;5005032;28;20083;-48
2021/12/22 05:30:26;;;;;;;4.93;3.85;;;;;;;;;;5003476;28;20496;-47
2021/12/22 05:32:54;;;;;;;8.55;4.60;;;;;;;;;;5005419;28;20447;-47
2021/12/22 05:35:19;;;;;;;4.28;3.53;;;;;;;;;;5009308;28;20026;-46
2021/12/22 05:37:45;;;;;;;5.15;4.65;;;;;;;;;;5007485;28;20033;-46
2021/12/22 05:40:10;;;;;;;4.22;3.83;;;;;;;;;;5008910;28;20459;-47
2021/12/22 05:42:36;;;;;;;4.35;3.20;;;;;;;;;;5004331;28;20037;-49
2021/12/22 05:45:03;;;;;;;4.13;3.72;;;;;;;;;;5005244;28;20085;-49
2021/12/22 05:47:28;;;;;;;5.35;3.65;;;;;;;;;;5006085;28;20026;-46
2021/12/22 05:49:54;;;;;;;6.30;4.55;;;;;;;;;;5009127;28;20034;-46
2021/12/22 05:52:19;;;;;;;4.22;3.53;;;;;;;;;;5009280;28;20101;-46
2021/12/22 05:54:45;;;;;;;3.40;3.10;;;;;;;;;;5007709;28;20029;-46
2021/12/22 05:57:11;;;;;;;5.07;4.68;;;;;;;;;;5000201;28;20042;-46
2021/12/22 05:59:36;;;;;;;4.00;3.42;;;;;;;;;;5007925;28;20096;-47
2021/12/22 06:02:02;;;;;;;3.60;3.30;;;;;;;;;;5002290;28;20047;-47
2021/12/22 06:04:27;;;;;;;11.73;4.00;;;;;;;;;;5004981;28;20032;-46
2021/12/22 06:06:52;;;;;;;5.63;4.78;;;;;;;;;;5001452;28;20537;-47
2021/12/22 06:09:18;;;;;;;4.43;4.03;;;;;;;;;;5005124;28;20578;-50
2021/12/22 06:11:43;;;;;;;3.88;3.50;;;;;;;;;;5006617;28;20034;-48
2021/12/22 06:14:08;;;;;;;4.00;3.60;;;;;;;;;;5008645;28;20036;-47
2021/12/22 06:16:34;;;;;;;5.07;4.60;;;;;;;;;;4999532;28;20108;-49
2021/12/22 06:19:03;;;;;;;3.38;2.95;;;;;;;;;;5009872;28;20131;-48
2021/12/22 06:21:30;;;;;;;4.55;4.15;;;;;;;;;;4999881;28;20081;-47
2021/12/22 06:23:56;;;;;;;3.63;3.17;;;;;;;;;;5005277;28;20029;-48
2021/12/22 06:26:22;;;;;;;6.28;4.60;;;;;;;;;;5010741;28;20482;-49
2021/12/22 06:28:47;;;;;;;10.85;5.65;;;;;;;;;;5009838;28;20029;-48
2021/12/22 06:31:13;;;;;;;5.70;5.10;;;;;;;;;;5003733;28;20029;-48
2021/12/22 06:33:39;;;;;;;5.85;4.40;;;;;;;;;;4982523;28;20134;-49
2021/12/22 06:36:04;;;;;;;8.80;5.97;;;;;;;;;;5004327;28;20018;-50
2021/12/22 06:38:30;;;;;;;4.93;4.22;;;;;;;;;;4999660;28;20371;-60
2021/12/22 06:40:55;;;;;;;5.55;4.90;;;;;;;;;;5004383;28;20026;-60
2021/12/22 06:43:21;;;;;;;14.50;5.60;;;;;;;;;;5000615;28;20056;-58
2021/12/22 06:45:46;;;;;;;4.20;3.80;;;;;;;;;;5009750;28;20050;-60
2021/12/22 06:48:11;;;;;;;5.88;4.53;;;;;;;;;;5008638;28;20077;-60
2021/12/22 06:50:37;;;;;;;3.78;3.33;;;;;;;;;;5007829;28;20112;-61
2021/12/22 06:53:02;;;;;;;4.80;4.18;;;;;;;;;;5007660;28;20303;-60
2021/12/22 06:55:28;;;;;;;5.57;5.00;;;;;;;;;;5004141;28;20076;-60
2021/12/22 06:57:54;;;;;;;4.75;4.25;;;;;;;;;;5006737;28;20422;-60
2021/12/22 07:00:19;;;;;;;5.72;5.03;;;;;;;;;;5003294;28;20062;-60
2021/12/22 07:02:45;;;;;;;5.43;3.53;;;;;;;;;;5004128;28;20590;-60
2021/12/22 07:05:12;;;;;;;8.40;5.72;;;;;;;;;;5005402;28;20022;-60
2021/12/22 07:07:38;;;;;;;4.22;3.83;;;;;;;;;;5003144;28;20114;-60
2021/12/22 07:10:07;;;;;;;5.55;3.42;;;;;;;;;;5002168;28;20346;-61
2021/12/22 07:12:33;;;;;;;3.90;3.45;;;;;;;;;;4998657;28;20472;-60
2021/12/22 07:14:59;;;;;;;6.05;4.50;;;;;;;;;;5005300;28;20699;-61
2021/12/22 07:17:24;;;;;;;3.90;3.40;;;;;;;;;;5003354;28;20031;-60
2021/12/22 07:19:50;;;;;;;4.82;4.32;;;;;;;;;;5000368;28;20045;-61
2021/12/22 07:22:15;;;;;;;5.55;3.35;;;;;;;;;;5006124;28;20625;-59
2021/12/22 07:24:41;;;;;;;3.45;3.15;;;;;;;;;;5006355;28;20057;-60
2021/12/22 07:27:06;;;;;;;4.00;3.65;;;;;;;;;;5014440;28;20030;-61
2021/12/22 07:29:31;;;;;;;4.88;4.43;;;;;;;;;;5008140;28;20387;-60
2021/12/22 07:31:57;;;;;;;6.13;4.47;;;;;;;;;;5006378;28;20065;-61
2021/12/22 07:34:34;;;;;;;4.78;3.95;;;;;;;;;;5006065;28;20129;-60
2021/12/22 07:37:23;;;;;;;4.95;4.45;;;;;;;;;;5009116;28;20026;-61
2021/12/22 07:39:49;;;;;;;6.97;6.03;;;;;;;;;;5003884;28;20050;-60
2021/12/22 07:42:14;;;;;;;6.40;5.25;;;;;;;;;;5013589;28;20027;-60
2021/12/22 07:44:40;;;;;;;4.47;4.07;;;;;;;;;;5005701;28;20563;-60
2021/12/22 07:47:05;;;;;;;5.63;4.57;;;;;;;;;;5009769;28;20057;-60
2021/12/22 07:49:31;;;;;;;4.22;3.83;;;;;;;;;;5012287;28;20037;-61
2021/12/22 07:51:56;;;;;;;5.72;4.43;;;;;;;;;;5006711;28;20061;-60
2021/12/22 07:54:21;;;;;;;5.28;4.05;;;;;;;;;;5008893;28;20452;-61
2021/12/22 07:56:47;;;;;;;4.07;3.60;;;;;;;;;;5009139;28;20034;-60
2021/12/22 07:59:12;;;;;;;3.85;3.47;;;;;;;;;;5004552;28;20038;-60
2021/12/22 08:01:38;;;;;;;4.60;3.83;;;;;;;;;;5004529;28;20053;-60
2021/12/22 08:04:03;;;;;;;5.85;4.63;;;;;;;;;;5007687;28;20044;-60
2021/12/22 08:06:29;;;;;;;4.15;3.70;;;;;;;;;;5009800;28;20064;-61
2021/12/22 08:08:54;;;;;;;5.13;4.63;;;;;;;;;;5005470;28;20026;-61
2021/12/22 08:11:19;;;;;;;4.95;3.67;;;;;;;;;;5005747;28;20034;-61
2021/12/22 08:13:45;;;;;;;7.63;4.88;;;;;;;;;;5008125;28;20062;-61
2021/12/22 08:16:10;;;;;;;5.20;4.60;;;;;;;;;;5008509;28;20035;-61
2021/12/22 08:18:36;;;;;;;6.35;5.60;;;;;;;;;;5009482;28;20037;-61
2021/12/22 08:21:02;;;;;;;6.15;4.82;;;;;;;;;;5009244;28;20026;-61
2021/12/22 08:23:27;;;;;;;6.72;4.43;;;;;;;;;;5006039;28;20642;-61
2021/12/22 08:25:53;;;;;;;5.35;4.35;;;;;;;;;;5008465;28;20444;-61
2021/12/22 08:28:18;;;;;;;4.65;3.58;;;;;;;;;;5000896;28;20030;-61
2021/12/22 08:30:44;;;;;;;7.63;4.15;;;;;;;;;;5004904;28;20422;-61
2021/12/22 08:33:19;;;;;;;5.05;4.00;;;;;;;;;;5011052;28;20611;-61
2021/12/22 08:38:53;;;;;;;5.10;3.50;;;;;;;;;;5008618;28;20463;-61
2021/12/22 08:41:25;;;;;;;6.97;4.45;;;;;;;;;;5007473;28;20026;-61
2021/12/22 08:43:53;;;;;;;6.47;3.90;;;;;;;;;;5001523;28;20048;-61
2021/12/22 08:46:19;;;;;;;4.85;3.45;;;;;;;;;;5006397;28;20026;-61
2021/12/22 08:48:44;;;;;;;4.07;3.67;;;;;;;;;;5004930;28;20450;-61
2021/12/22 08:51:10;;;;;;;5.15;4.30;;;;;;;;;;5003962;28;20036;-61
2021/12/22 08:53:35;;;;;;;5.45;3.88;;;;;;;;;;5003429;28;20470;-61
2021/12/22 08:56:01;;;;;;;4.20;3.80;;;;;;;;;;5001054;28;20053;-61
2021/12/22 08:58:26;;;;;;;4.18;3.78;;;;;;;;;;5007355;28;20066;-60
2021/12/22 09:00:52;;;;;;;4.70;3.45;;;;;;;;;;5005052;28;20029;-60
2021/12/22 09:03:17;;;;;;;4.70;4.20;;;;;;;;;;5003197;28;20037;-60
2021/12/22 09:05:42;;;;;;;4.95;4.45;;;;;;;;;;5000720;28;20030;-61
2021/12/22 09:08:08;;;;;;;5.80;4.53;;;;;;;;;;5002326;28;20412;-60
2021/12/22 09:10:33;;;;;;;6.93;4.78;;;;;;;;;;5002287;28;20574;-60
2021/12/22 09:12:59;;;;;;;8.00;5.28;;;;;;;;;;5004507;28;20030;-60
2021/12/22 09:15:24;;;;;;;10.95;5.95;;;;;;;;;;5007729;28;20029;-60
2021/12/22 09:17:50;;;;;;;4.80;3.95;;;;;;;;;;5014513;28;20042;-60
2021/12/22 09:20:15;;;;;;;3.63;3.33;;;;;;;;;;5009113;28;20026;-60
2021/12/22 09:22:41;;;;;;;6.22;4.30;;;;;;;;;;5009542;28;20057;-60
2021/12/22 09:25:06;;;;;;;5.68;4.63;;;;;;;;;;5007473;28;20036;-61
2021/12/22 09:27:32;;;;;;;5.38;4.78;;;;;;;;;;5009760;28;20096;-61
2021/12/22 09:29:57;;;;;;;7.43;4.78;;;;;;;;;;5006980;28;20468;-60
2021/12/22 09:32:23;;;;;;;5.03;4.18;;;;;;;;;;5006973;28;20104;-60
2021/12/22 09:34:49;;;;;;;5.45;4.55;;;;;;;;;;5010492;28;20338;-61
2021/12/22 09:37:16;;;;;;;7.38;4.45;;;;;;;;;;5003950;28;20125;-60
2021/12/22 09:39:42;;;;;;;7.95;4.95;;;;;;;;;;5003256;28;20045;-61
2021/12/22 09:42:09;;;;;;;5.25;4.57;;;;;;;;;;5002316;28;20041;-61
2021/12/22 09:44:42;;;;;;;5.68;4.80;;;;;;;;;;4999755;28;20058;-61
2021/12/22 09:47:08;;;;;;;6.63;4.93;;;;;;;;;;5005028;28;20030;-61
2021/12/22 09:49:47;;;;;;;6.35;4.82;;;;;;;;;;5009249;28;20037;-61
2021/12/22 09:52:21;;;;;;;9.05;4.70;;;;;;;;;;5005897;28;20444;-62
2021/12/22 09:54:50;;;;;;;6.53;5.13;;;;;;;;;;5003119;28;20052;-61
2021/12/22 09:57:17;;;;;;;4.93;4.43;;;;;;;;;;5005528;28;20070;-61
2021/12/22 09:59:45;;;;;;;5.43;4.85;;;;;;;;;;5006968;28;20120;-60
2021/12/22 10:02:11;;;;;;;6.05;4.50;;;;;;;;;;5008999;28;20045;-61
2021/12/22 10:04:36;;;;;;;4.80;4.35;;;;;;;;;;5007612;28;20116;-61
2021/12/22 10:07:02;;;;;;;4.68;4.03;;;;;;;;;;5003066;28;20117;-61
2021/12/22 10:09:29;;;;;;;4.50;4.10;;;;;;;;;;5007101;28;20144;-61
2021/12/22 10:11:54;;;;;;;10.35;5.35;;;;;;;;;;5009928;28;20083;-61
2021/12/22 10:14:23;;;;;;;8.48;6.60;;;;;;;;;;4998996;28;20041;-62
2021/12/22 10:16:51;;;;;;;6.18;4.78;;;;;;;;;;4997910;28;20514;-61
2021/12/22 10:19:17;;;;;;;4.80;3.85;;;;;;;;;;4996701;28;20048;-61
2021/12/22 10:22:09;;;;;;;8.73;4.82;;;;;;;;;;5002367;28;20038;-61
2021/12/22 10:24:37;;;;;;;;;;;;;;;;;;4998877;28;20038;-61
2021/12/22 10:27:10;;;;;;;9.13;4.43;;;;;;;;;;5006425;28;20012;-61
2021/12/22 10:29:35;;;;;;;3.38;2.97;;;;;;;;;;5002792;28;20044;-61
2021/12/22 10:32:10;;;;;;;4.47;3.85;;;;;;;;;;5000833;28;20038;-60
2021/12/22 10:34:51;;;;;;;5.88;4.30;;;;;;;;;;5003190;28;20467;-60
2021/12/22 10:37:35;;;;;;;4.65;4.18;;;;;;;;;;5003897;28;20042;-60
2021/12/22 10:40:19;;;;;;;6.20;3.65;;;;;;;;;;5004801;28;20042;-60
2021/12/22 10:42:45;;;;;;;6.78;4.85;;;;;;;;;;5001034;28;20045;-61
2021/12/22 10:45:15;;;;;;;4.75;4.15;;;;;;;;;;5003413;28;20026;-60
2021/12/22 10:50:42;;;;;;;4.97;3.67;;;;;;;;;;5001073;28;20038;-61
2021/12/22 10:53:09;;;;;;;5.97;5.28;;;;;;;;;;5000570;28;20027;-61
2021/12/22 10:55:37;;;;;;;3.83;3.42;;;;;;;;;;5000658;28;20045;-61
2021/12/22 10:58:14;;;;;;;5.32;4.80;;;;;;;;;;5005033;28;20455;-61
2021/12/22 11:00:40;;;;;;;4.72;3.97;;;;;;;;;;5006694;28;20033;-61
2021/12/22 11:03:13;;;;;;;5.57;4.30;;;;;;;;;;5006256;28;20025;-61
2021/12/22 11:05:47;;;;;;;6.30;4.25;;;;;;;;;;5009973;28;20051;-61
2021/12/22 11:08:24;;;;;;;3.80;3.40;;;;;;;;;;5008792;28;20437;-61
2021/12/22 11:10:52;;;;;;;4.03;3.38;;;;;;;;;;5006925;28;20089;-62
2021/12/22 11:13:22;;;;;;;6.50;5.38;;;;;;;;;;5005169;28;20044;-62
2021/12/22 11:15:49;;;;;;;5.15;4.30;;;;;;;;;;5015250;28;20045;-62
2021/12/22 11:18:36;;;;;;;8.32;5.15;;;;;;;;;;5003998;28;20040;-62
2021/12/22 11:21:08;;;;;;;4.80;4.13;;;;;;;;;;5006904;28;20062;-62
2021/12/22 11:23:35;;;;;;;6.15;4.72;;;;;;;;;;5007411;28;20034;-62
2021/12/22 11:26:00;;;;;;;4.72;4.07;;;;;;;;;;5009842;28;20117;-63
2021/12/22 11:28:26;;;;;;;4.28;3.83;;;;;;;;;;5006033;28;20167;-62
2021/12/22 11:30:51;;;;;;;4.45;4.05;;;;;;;;;;5001799;28;20034;-63
2021/12/22 11:33:17;;;;;;;5.70;4.38;;;;;;;;;;5002241;28;20045;-63
2021/12/22 11:35:42;;;;;;;5.57;4.82;;;;;;;;;;5005759;28;20101;-63
2021/12/22 11:38:08;;;;;;;6.80;4.78;;;;;;;;;;5002386;28;20400;-64
2021/12/22 11:40:33;;;;;;;5.15;4.65;;;;;;;;;;5005625;28;20594;-64
2021/12/22 11:42:59;;;;;;;5.10;4.32;;;;;;;;;;5007308;28;20410;-64
2021/12/22 11:45:26;;;;;;;6.20;5.35;;;;;;;;;;5008566;28;20115;-65
2021/12/22 11:47:56;;;;;;;5.78;4.53;;;;;;;;;;5008742;28;20124;-65
2021/12/22 11:50:33;;;;;;;4.68;4.03;;;;;;;;;;5007223;28;20041;-64
2021/12/22 11:53:06;;;;;;;4.80;4.30;;;;;;;;;;5006229;28;20116;-65
2021/12/22 11:55:45;;;;;;;4.78;4.28;;;;;;;;;;5004379;28;20129;-65
2021/12/22 11:58:25;;;;;;;5.22;4.38;;;;;;;;;;5004739;28;20061;-65
2021/12/22 12:00:53;;;;;;;7.32;4.85;;;;;;;;;;5009914;28;20048;-65
2021/12/22 12:03:20;;;;;;;6.60;4.60;;;;;;;;;;5006529;28;20038;-66
2021/12/22 12:06:07;;;;;;;3.58;3.20;;;;;;;;;;5005190;28;20038;-67
2021/12/22 12:08:44;;;;;;;5.90;5.13;;;;;;;;;;5002667;28;20467;-67
2021/12/22 12:11:21;;;;;;;4.43;4.03;;;;;;;;;;5004226;28;20466;-66
2021/12/22 12:13:55;;;;;;;4.88;4.38;;;;;;;;;;5006751;28;20459;-67
2021/12/22 12:22:36;;;;;;;5.70;4.75;;;;;;;;;;5006122;28;20030;-67
2021/12/22 12:25:10;;;;;;;8.18;5.00;;;;;;;;;;4998152;28;20030;-66
2021/12/22 12:27:49;;;;;;;5.50;4.88;;;;;;;;;;5004348;28;20372;-66
2021/12/22 12:30:19;;;;;;;4.95;4.50;;;;;;;;;;5002128;28;20049;-65
2021/12/22 12:32:50;;;;;;;5.15;4.65;;;;;;;;;;5002789;28;20026;-67
2021/12/22 12:35:18;;;;;;;4.82;3.90;;;;;;;;;;4997182;28;20394;-67
2021/12/22 12:38:14;;;;;;;5.55;4.32;;;;;;;;;;5004697;28;20462;-66
2021/12/22 12:40:55;;;;;;;4.78;4.22;;;;;;;;;;4997927;28;20125;-66
2021/12/22 12:43:48;;;;;;;8.02;4.45;;;;;;;;;;5002756;28;20033;-66
2021/12/22 12:46:19;;;;;;;5.72;5.03;;;;;;;;;;4996665;28;20147;-66
2021/12/22 12:48:51;;;;;;;6.50;4.63;;;;;;;;;;5004881;28;20057;-66
2021/12/22 12:51:20;;;;;;;7.00;5.13;;;;;;;;;;5005970;28;20094;-66
2021/12/22 12:53:48;;;;;;;4.03;3.42;;;;;;;;;;5008476;28;20030;-66
2021/12/22 12:56:15;;;;;;;5.28;4.07;;;;;;;;;;5010565;28;20456;-66
2021/12/22 12:59:14;;;;;;;4.90;4.40;;;;;;;;;;5008602;28;20073;-65
2021/12/22 13:01:50;;;;;;;5.55;5.03;;;;;;;;;;5001711;28;20119;-65
2021/12/22 13:04:31;;;;;;;6.35;5.60;;;;;;;;;;5011150;28;20180;-65
2021/12/22 13:07:04;;;;;;;6.70;4.87;;;;;;;;;;5005363;28;20128;-65
2021/12/22 13:09:43;;;;;;;4.15;3.72;;;;;;;;;;5004989;28;20080;-65
2021/12/22 13:17:53;;;;;;;4.60;3.63;;;;;;;;;;5005607;28;20058;-64
2021/12/22 13:20:28;;;;;;;5.53;4.82;;;;;;;;;;5001954;28;20030;-63
2021/12/22 13:22:56;;;;;;;6.57;5.55;;;;;;;;;;5002282;28;20427;-64
2021/12/22 13:25:26;;;;;;;6.85;4.10;;;;;;;;;;5002760;28;20725;-65
2021/12/22 13:27:57;;;;;;;5.85;4.97;;;;;;;;;;5006211;28;20034;-64
2021/12/22 13:30:24;;;;;;;;;;;;;;;;;;5007418;28;20042;-64
2021/12/22 13:33:05;;;;;;;6.32;4.85;;;;;;;;;;5004679;28;20251;-64
2021/12/22 13:35:37;;;;;;;4.85;4.25;;;;;;;;;;5005548;28;20463;-64
2021/12/22 13:38:07;;;;;;;5.18;4.68;;;;;;;;;;5005062;28;20041;-64
2021/12/22 13:40:49;;;;;;;6.78;4.55;;;;;;;;;;5002363;28;20029;-64
2021/12/22 13:43:27;;;;;;;4.95;4.10;;;;;;;;;;5006082;28;20143;-64
2021/12/22 13:45:56;;;;;;;7.32;4.93;;;;;;;;;;5003202;28;20515;-64
2021/12/22 13:48:25;;;;;;;8.07;4.50;;;;;;;;;;5004324;28;20064;-64
2021/12/22 13:50:51;;;;;;;8.02;5.05;;;;;;;;;;5002760;28;20042;-64
2021/12/22 13:53:20;;;;;;;7.47;4.72;;;;;;;;;;5007863;28;20048;-64
2021/12/22 13:55:47;;;;;;;5.55;4.97;;;;;;;;;;5004517;28;20459;-63
2021/12/22 13:58:49;;;;;;;6.43;5.28;;;;;;;;;;5003435;28;20114;-63
2021/12/22 14:01:23;;;;;;;6.22;4.82;;;;;;;;;;4995308;28;20375;-64
2021/12/22 14:04:03;;;;;;;3.65;3.22;;;;;;;;;;5002622;28;20037;-64
2021/12/22 14:06:31;;;;;;;5.10;4.43;;;;;;;;;;5002707;28;20040;-64
2021/12/22 14:09:13;;;;;;;4.57;4.03;;;;;;;;;;4999935;28;20438;-63
2021/12/22 14:11:42;;;;;;;6.13;4.28;;;;;;;;;;4998917;28;20041;-63
2021/12/22 14:14:20;;;;;;;5.57;4.65;;;;;;;;;;5012978;28;20092;-63
2021/12/22 14:20:19;;;;;;;4.63;4.03;;;;;;;;;;4999206;28;20443;-63
2021/12/22 14:23:02;;;;;;;5.72;4.20;;;;;;;;;;5000479;28;20045;-63
2021/12/22 14:25:31;;;;;;;4.97;4.40;;;;;;;;;;5008076;28;20022;-63
2021/12/22 14:28:12;;;;;;;4.82;4.35;;;;;;;;;;5007895;28;20037;-64
2021/12/22 14:30:40;;;;;;;5.07;4.35;;;;;;;;;;5007670;28;20034;-63
2021/12/22 14:33:14;;;;;;;10.02;5.68;;;;;;;;;;5007750;28;20103;-63
2021/12/22 14:35:51;;;;;;;8.60;7.03;;;;;;;;;;4998505;28;20104;-63
2021/12/22 14:38:19;;;;;;;7.93;6.47;;;;;;;;;;5001801;28;20027;-65
2021/12/22 14:40:54;;;;;;;6.40;5.13;;;;;;;;;;5003841;28;20040;-63
2021/12/22 14:43:19;;;;;;;10.48;8.35;;;;;;;;;;5004792;28;20044;-63
2021/12/22 14:45:46;;;;;;;6.15;5.55;;;;;;;;;;5006422;28;20033;-63
2021/12/22 14:48:13;;;;;;;6.65;5.90;;;;;;;;;;5006051;28;20072;-63
2021/12/22 14:50:54;;;;;;;9.55;6.30;;;;;;;;;;5004070;28;20049;-63
2021/12/22 14:53:35;;;;;;;5.15;4.25;;;;;;;;;;5007610;28;20022;-63
2021/12/22 14:56:06;;;;;;;6.13;4.70;;;;;;;;;;5007099;28;20034;-63
2021/12/22 14:58:32;;;;;;;4.70;4.20;;;;;;;;;;5005639;28;20284;-63
2021/12/22 15:00:57;;;;;;;6.60;5.07;;;;;;;;;;4999417;28;20034;-63
2021/12/22 15:03:23;;;;;;;5.10;4.60;;;;;;;;;;5007416;28;20037;-63
2021/12/22 15:05:57;;;;;;;4.57;4.13;;;;;;;;;;5003754;28;20035;-63
2021/12/22 15:08:24;;;;;;;4.78;4.03;;;;;;;;;;5004159;28;20070;-63
2021/12/22 15:10:50;;;;;;;4.50;3.92;;;;;;;;;;5003378;28;20053;-63
2021/12/22 15:13:15;;;;;;;5.78;4.93;;;;;;;;;;5001227;28;20030;-63
2021/12/22 15:15:41;;;;;;;7.78;5.15;;;;;;;;;;5003516;28;20156;-63
2021/12/22 15:18:06;;;;;;;7.00;5.75;;;;;;;;;;5007184;28;20089;-63
2021/12/22 15:20:32;;;;;;;5.03;4.13;;;;;;;;;;4994533;28;20109;-63
2021/12/22 15:22:57;;;;;;;5.47;4.60;;;;;;;;;;5003503;28;20080;-63
2021/12/22 15:25:22;;;;;;;5.93;5.20;;;;;;;;;;5004184;28;20033;-63
2021/12/22 15:27:48;;;;;;;6.57;5.85;;;;;;;;;;5009691;28;20041;-63
2021/12/22 15:30:14;;;;;;;4.43;3.83;;;;;;;;;;5013956;28;20045;-63